TAM3446 SBCT-SBKP
Flight info
| Callsign | TAM3446 |
|---|---|
| Flight time | 0h 43m |
| Altitude | 25000 |
| Route | AKPEN UZ132 EDRAT |
| Aircraft | A321/M-SDE3FGHIRWY/LB1 |
Departure
| Time | 2026-04-27 22:16 |
|---|---|
| Airport | Curitiba-Afonso Pena International Airport (SBCT) |
Arrival
| Time | 2026-04-27 23:00 |
|---|---|
| Airport | Viracopos International Airport (SBKP) |
| Time | Latitude | Longitude | Altitude | Speed | Heading |
|---|---|---|---|---|---|
| 2026-04-27 21:48 | -25.53739 | -49.17025 | 2996 ft | 0 kts | 226° |
| 2026-04-27 22:03 | -25.53725 | -49.17008 | 2996 ft | 4 kts | 234° |
| 2026-04-27 22:03 | -25.53711 | -49.16983 | 2996 ft | 4 kts | 255° |
| 2026-04-27 22:03 | -25.53711 | -49.16956 | 2996 ft | 4 kts | 304° |
| 2026-04-27 22:04 | -25.53715 | -49.16951 | 2996 ft | 0 kts | 315° |
| 2026-04-27 22:08 | -25.53711 | -49.16955 | 2996 ft | 2 kts | 315° |
| 2026-04-27 22:08 | -25.53699 | -49.16968 | 2996 ft | 3 kts | 315° |
| 2026-04-27 22:09 | -25.53683 | -49.16986 | 2996 ft | 2 kts | 315° |
| 2026-04-27 22:09 | -25.53669 | -49.17001 | 2996 ft | 4 kts | 315° |
| 2026-04-27 22:09 | -25.53648 | -49.17025 | 2996 ft | 5 kts | 315° |
| 2026-04-27 22:09 | -25.53619 | -49.17057 | 2996 ft | 7 kts | 315° |
| 2026-04-27 22:10 | -25.53583 | -49.17096 | 2996 ft | 8 kts | 315° |
| 2026-04-27 22:10 | -25.53542 | -49.17143 | 2996 ft | 9 kts | 314° |
| 2026-04-27 22:10 | -25.53485 | -49.17139 | 2996 ft | 10 kts | 32° |
| 2026-04-27 22:10 | -25.53427 | -49.17154 | 2996 ft | 10 kts | 320° |
| 2026-04-27 22:11 | -25.53375 | -49.17210 | 2996 ft | 11 kts | 314° |
| 2026-04-27 22:11 | -25.53319 | -49.17273 | 2996 ft | 12 kts | 314° |
| 2026-04-27 22:11 | -25.53257 | -49.17343 | 2996 ft | 13 kts | 314° |
| 2026-04-27 22:11 | -25.53190 | -49.17418 | 2996 ft | 14 kts | 314° |
| 2026-04-27 22:12 | -25.53119 | -49.17499 | 2996 ft | 15 kts | 314° |
| 2026-04-27 22:12 | -25.53042 | -49.17585 | 2996 ft | 16 kts | 315° |
| 2026-04-27 22:12 | -25.52983 | -49.17691 | 2995 ft | 17 kts | 276° |
| 2026-04-27 22:12 | -25.52978 | -49.17825 | 2995 ft | 18 kts | 271° |
| 2026-04-27 22:13 | -25.52917 | -49.17931 | 2995 ft | 14 kts | 317° |
| 2026-04-27 22:13 | -25.52827 | -49.17992 | 2993 ft | 17 kts | 352° |
| 2026-04-27 22:13 | -25.52733 | -49.17998 | 2995 ft | 12 kts | 358° |
| 2026-04-27 22:13 | -25.52649 | -49.17999 | 2996 ft | 13 kts | 358° |
| 2026-04-27 22:14 | -25.52558 | -49.18004 | 2996 ft | 14 kts | 357° |
| 2026-04-27 22:14 | -25.52463 | -49.18019 | 2996 ft | 14 kts | 329° |
| 2026-04-27 22:14 | -25.52389 | -49.18093 | 2996 ft | 15 kts | 315° |
| 2026-04-27 22:14 | -25.52316 | -49.18174 | 2997 ft | 15 kts | 315° |
| 2026-04-27 22:15 | -25.52224 | -49.18229 | 2997 ft | 15 kts | 325° |
| 2026-04-27 22:15 | -25.52226 | -49.18265 | 2996 ft | 2 kts | 182° |
| 2026-04-27 22:15 | -25.52247 | -49.18253 | 2997 ft | 4 kts | 147° |
| 2026-04-27 22:15 | -25.52272 | -49.18224 | 2997 ft | 14 kts | 134° |
| 2026-04-27 22:16 | -25.52548 | -49.17916 | 2995 ft | 96 kts | 134° |
| 2026-04-27 22:16 | -25.53182 | -49.17206 | 2999 ft | 160 kts | 135° |
| 2026-04-27 22:16 | -25.54036 | -49.16247 | 3515 ft | 177 kts | 135° |
| 2026-04-27 22:16 | -25.54889 | -49.15288 | 4437 ft | 172 kts | 130° |
| 2026-04-27 22:17 | -25.55319 | -49.14072 | 5218 ft | 169 kts | 90° |
| 2026-04-27 22:17 | -25.54999 | -49.12855 | 5713 ft | 170 kts | 60° |
| 2026-04-27 22:17 | -25.54340 | -49.11681 | 5892 ft | 190 kts | 56° |
| 2026-04-27 22:17 | -25.53569 | -49.10397 | 6038 ft | 210 kts | 56° |
| 2026-04-27 22:18 | -25.52726 | -49.08962 | 6180 ft | 228 kts | 57° |
| 2026-04-27 22:18 | -25.51851 | -49.07416 | 6298 ft | 246 kts | 58° |
| 2026-04-27 22:18 | -25.50938 | -49.05745 | 6398 ft | 270 kts | 59° |
| 2026-04-27 22:18 | -25.49950 | -49.03896 | 6737 ft | 285 kts | 59° |
| 2026-04-27 22:19 | -25.48944 | -49.01973 | 7345 ft | 291 kts | 59° |
| 2026-04-27 22:19 | -25.47917 | -48.99990 | 7995 ft | 296 kts | 59° |
| 2026-04-27 22:19 | -25.46872 | -48.98012 | 8617 ft | 299 kts | 54° |
| 2026-04-27 22:19 | -25.45536 | -48.96279 | 9228 ft | 301 kts | 40° |
| 2026-04-27 22:20 | -25.43820 | -48.94903 | 9849 ft | 302 kts | 25° |
| 2026-04-27 22:20 | -25.41867 | -48.94020 | 10324 ft | 309 kts | 12° |
| 2026-04-27 22:20 | -25.39746 | -48.93440 | 10452 ft | 328 kts | 10° |
| 2026-04-27 22:20 | -25.37485 | -48.92842 | 10856 ft | 338 kts | 10° |
| 2026-04-27 22:21 | -25.35184 | -48.92229 | 11450 ft | 342 kts | 10° |
| 2026-04-27 22:21 | -25.32862 | -48.91605 | 12049 ft | 345 kts | 9° |
| 2026-04-27 22:21 | -25.30523 | -48.90975 | 12675 ft | 347 kts | 9° |
| 2026-04-27 22:21 | -25.28168 | -48.90339 | 13298 ft | 350 kts | 9° |
| 2026-04-27 22:22 | -25.25802 | -48.89696 | 13923 ft | 352 kts | 9° |
| 2026-04-27 22:22 | -25.23409 | -48.89047 | 14543 ft | 354 kts | 9° |
| 2026-04-27 22:22 | -25.21013 | -48.88393 | 15131 ft | 356 kts | 8° |
| 2026-04-27 22:22 | -25.18604 | -48.87737 | 15713 ft | 358 kts | 8° |
| 2026-04-27 22:23 | -25.16181 | -48.87078 | 16281 ft | 359 kts | 8° |
| 2026-04-27 22:23 | -25.13747 | -48.86428 | 16840 ft | 360 kts | 5° |
| 2026-04-27 22:23 | -25.11276 | -48.86015 | 17371 ft | 359 kts | 2° |
| 2026-04-27 22:23 | -25.08792 | -48.85637 | 17901 ft | 362 kts | 2° |
| 2026-04-27 22:24 | -25.06294 | -48.85258 | 18420 ft | 363 kts | 1° |
| 2026-04-27 22:24 | -25.03780 | -48.84879 | 18914 ft | 366 kts | 1° |
| 2026-04-27 22:24 | -25.01249 | -48.84496 | 19380 ft | 368 kts | 1° |
| 2026-04-27 22:24 | -24.98699 | -48.84110 | 19828 ft | 372 kts | 1° |
| 2026-04-27 22:25 | -24.96125 | -48.83720 | 20276 ft | 375 kts | 1° |
| 2026-04-27 22:25 | -24.93531 | -48.83326 | 20735 ft | 378 kts | 1° |
| 2026-04-27 22:25 | -24.90919 | -48.82931 | 21166 ft | 380 kts | 1° |
| 2026-04-27 22:25 | -24.88287 | -48.82533 | 21595 ft | 383 kts | 1° |
| 2026-04-27 22:26 | -24.85641 | -48.82132 | 22006 ft | 386 kts | 1° |
| 2026-04-27 22:26 | -24.82967 | -48.81725 | 22385 ft | 389 kts | 1° |
| 2026-04-27 22:26 | -24.80277 | -48.81315 | 22768 ft | 392 kts | 0° |
| 2026-04-27 22:26 | -24.77565 | -48.80903 | 23115 ft | 395 kts | 0° |
| 2026-04-27 22:27 | -24.74822 | -48.80487 | 23403 ft | 400 kts | 0° |
| 2026-04-27 22:27 | -24.72064 | -48.80068 | 23757 ft | 401 kts | 0° |
| 2026-04-27 22:27 | -24.69298 | -48.79647 | 24147 ft | 402 kts | 0° |
| 2026-04-27 22:27 | -24.66520 | -48.79225 | 24484 ft | 404 kts | 0° |
| 2026-04-27 22:28 | -24.63726 | -48.78800 | 24833 ft | 406 kts | 0° |
| 2026-04-27 22:28 | -24.60924 | -48.78373 | 25069 ft | 408 kts | 0° |
| 2026-04-27 22:28 | -24.58147 | -48.77949 | 25115 ft | 395 kts | 0° |
| 2026-04-27 22:28 | -24.55460 | -48.77535 | 25108 ft | 387 kts | 0° |
| 2026-04-27 22:29 | -24.52805 | -48.77061 | 25109 ft | 390 kts | 6° |
| 2026-04-27 22:29 | -24.50225 | -48.76046 | 25110 ft | 400 kts | 19° |
| 2026-04-27 22:29 | -24.47807 | -48.74477 | 25112 ft | 406 kts | 25° |
| 2026-04-27 22:29 | -24.45415 | -48.72826 | 25109 ft | 406 kts | 25° |
| 2026-04-27 22:30 | -24.43025 | -48.71172 | 25110 ft | 406 kts | 25° |
| 2026-04-27 22:30 | -24.40633 | -48.69518 | 25109 ft | 407 kts | 25° |
| 2026-04-27 22:30 | -24.38241 | -48.67864 | 25107 ft | 406 kts | 25° |
| 2026-04-27 22:30 | -24.35847 | -48.66214 | 25108 ft | 406 kts | 25° |
| 2026-04-27 22:31 | -24.33457 | -48.64570 | 25104 ft | 406 kts | 25° |
| 2026-04-27 22:31 | -24.31065 | -48.62925 | 25104 ft | 406 kts | 25° |
| 2026-04-27 22:31 | -24.28674 | -48.61282 | 25105 ft | 406 kts | 25° |
| 2026-04-27 22:31 | -24.26280 | -48.59633 | 25101 ft | 406 kts | 25° |
| 2026-04-27 22:32 | -24.23887 | -48.57991 | 25098 ft | 406 kts | 25° |
| 2026-04-27 22:32 | -24.21495 | -48.56352 | 25095 ft | 406 kts | 25° |
| 2026-04-27 22:32 | -24.19101 | -48.54713 | 25096 ft | 406 kts | 25° |
| 2026-04-27 22:32 | -24.16704 | -48.53071 | 25093 ft | 406 kts | 25° |
| 2026-04-27 22:33 | -24.14307 | -48.51428 | 25092 ft | 406 kts | 25° |
| 2026-04-27 22:33 | -24.11911 | -48.49786 | 25092 ft | 406 kts | 25° |
| 2026-04-27 22:33 | -24.09515 | -48.48149 | 25092 ft | 406 kts | 25° |
| 2026-04-27 22:33 | -24.07121 | -48.46515 | 25092 ft | 406 kts | 25° |
| 2026-04-27 22:34 | -24.04724 | -48.44878 | 25092 ft | 406 kts | 25° |
| 2026-04-27 22:34 | -24.02324 | -48.43238 | 25090 ft | 407 kts | 25° |
| 2026-04-27 22:34 | -23.99923 | -48.41598 | 25089 ft | 407 kts | 25° |
| 2026-04-27 22:34 | -23.97517 | -48.39955 | 25090 ft | 407 kts | 25° |
| 2026-04-27 22:35 | -23.95112 | -48.38312 | 25091 ft | 407 kts | 25° |
| 2026-04-27 22:35 | -23.92712 | -48.36672 | 25091 ft | 407 kts | 25° |
| 2026-04-27 22:35 | -23.90310 | -48.35033 | 25088 ft | 407 kts | 25° |
| 2026-04-27 22:35 | -23.88721 | -48.33951 | 25085 ft | 407 kts | 25° |
| 2026-04-27 22:36 | -23.85512 | -48.31762 | 25080 ft | 406 kts | 25° |
| 2026-04-27 22:36 | -23.83149 | -48.30138 | 25078 ft | 407 kts | 26° |
| 2026-04-27 22:36 | -23.80786 | -48.28427 | 25074 ft | 408 kts | 27° |
| 2026-04-27 22:36 | -23.78450 | -48.26657 | 25073 ft | 409 kts | 28° |
| 2026-04-27 22:37 | -23.76129 | -48.24858 | 25072 ft | 410 kts | 28° |
| 2026-04-27 22:37 | -23.73807 | -48.23050 | 25071 ft | 409 kts | 29° |
| 2026-04-27 22:37 | -23.71471 | -48.21247 | 25060 ft | 416 kts | 28° |
| 2026-04-27 22:37 | -23.69076 | -48.19426 | 24306 ft | 422 kts | 28° |
| 2026-04-27 22:38 | -23.66675 | -48.17608 | 23764 ft | 415 kts | 28° |
| 2026-04-27 22:38 | -23.64340 | -48.15833 | 23321 ft | 404 kts | 28° |
| 2026-04-27 22:38 | -23.62065 | -48.14109 | 22867 ft | 394 kts | 28° |
| 2026-04-27 22:38 | -23.59843 | -48.12432 | 22427 ft | 383 kts | 28° |
| 2026-04-27 22:39 | -23.57686 | -48.10803 | 22006 ft | 373 kts | 27° |
| 2026-04-27 22:39 | -23.55576 | -48.09214 | 21565 ft | 364 kts | 27° |
| 2026-04-27 22:39 | -23.53515 | -48.07667 | 21136 ft | 356 kts | 27° |
| 2026-04-27 22:39 | -23.51485 | -48.06150 | 20718 ft | 353 kts | 27° |
| 2026-04-27 22:40 | -23.49464 | -48.04641 | 20307 ft | 351 kts | 28° |
| 2026-04-27 22:40 | -23.48135 | -48.03645 | 20013 ft | 350 kts | 28° |
| 2026-04-27 22:40 | -23.46141 | -48.02143 | 19596 ft | 347 kts | 28° |
| 2026-04-27 22:40 | -23.44165 | -48.00656 | 19185 ft | 344 kts | 28° |
| 2026-04-27 22:41 | -23.42201 | -47.99183 | 18775 ft | 342 kts | 28° |
| 2026-04-27 22:41 | -23.40254 | -47.97724 | 18362 ft | 339 kts | 28° |
| 2026-04-27 22:41 | -23.38322 | -47.96274 | 17955 ft | 336 kts | 29° |
| 2026-04-27 22:41 | -23.36404 | -47.94832 | 17549 ft | 333 kts | 29° |
| 2026-04-27 22:42 | -23.34506 | -47.93407 | 17156 ft | 331 kts | 29° |
| 2026-04-27 22:42 | -23.32621 | -47.91991 | 16742 ft | 328 kts | 29° |
| 2026-04-27 22:42 | -23.30749 | -47.90587 | 16339 ft | 325 kts | 29° |
| 2026-04-27 22:42 | -23.28891 | -47.89193 | 15937 ft | 328 kts | 30° |
| 2026-04-27 22:43 | -23.26968 | -47.87756 | 15430 ft | 339 kts | 30° |
| 2026-04-27 22:43 | -23.25017 | -47.86299 | 14934 ft | 340 kts | 30° |
| 2026-04-27 22:43 | -23.23077 | -47.84841 | 14439 ft | 337 kts | 30° |
| 2026-04-27 22:43 | -23.21286 | -47.83194 | 13950 ft | 340 kts | 44° |
| 2026-04-27 22:44 | -23.19888 | -47.81124 | 13455 ft | 341 kts | 58° |
| 2026-04-27 22:44 | -23.18781 | -47.78850 | 13132 ft | 339 kts | 59° |
| 2026-04-27 22:44 | -23.17681 | -47.76589 | 13076 ft | 338 kts | 59° |
| 2026-04-27 22:44 | -23.16577 | -47.74337 | 13090 ft | 338 kts | 59° |
| 2026-04-27 22:45 | -23.15468 | -47.72083 | 13090 ft | 338 kts | 59° |
| 2026-04-27 22:45 | -23.14358 | -47.69831 | 13091 ft | 338 kts | 59° |
| 2026-04-27 22:45 | -23.13251 | -47.67576 | 13093 ft | 338 kts | 59° |
| 2026-04-27 22:45 | -23.12149 | -47.65325 | 13087 ft | 338 kts | 59° |
| 2026-04-27 22:46 | -23.11058 | -47.63093 | 13086 ft | 329 kts | 59° |
| 2026-04-27 22:46 | -23.09995 | -47.60914 | 13087 ft | 325 kts | 59° |
| 2026-04-27 22:46 | -23.08936 | -47.58750 | 13089 ft | 324 kts | 59° |
| 2026-04-27 22:46 | -23.07879 | -47.56590 | 13086 ft | 324 kts | 59° |
| 2026-04-27 22:47 | -23.06819 | -47.54432 | 13096 ft | 324 kts | 59° |
| 2026-04-27 22:47 | -23.05757 | -47.52275 | 13093 ft | 324 kts | 59° |
| 2026-04-27 22:47 | -23.04698 | -47.50123 | 12699 ft | 322 kts | 59° |
| 2026-04-27 22:47 | -23.03641 | -47.47977 | 12064 ft | 322 kts | 59° |
| 2026-04-27 22:48 | -23.02594 | -47.45844 | 11489 ft | 319 kts | 59° |
| 2026-04-27 22:48 | -23.01555 | -47.43729 | 10926 ft | 316 kts | 59° |
| 2026-04-27 22:48 | -23.00532 | -47.41658 | 10571 ft | 306 kts | 59° |
| 2026-04-27 22:48 | -22.99552 | -47.39667 | 10318 ft | 293 kts | 59° |
| 2026-04-27 22:49 | -22.98614 | -47.37756 | 10073 ft | 281 kts | 59° |
| 2026-04-27 22:49 | -22.97718 | -47.35934 | 9911 ft | 266 kts | 59° |
| 2026-04-27 22:49 | -22.96855 | -47.34183 | 9784 ft | 262 kts | 59° |
| 2026-04-27 22:49 | -22.95995 | -47.32448 | 9660 ft | 261 kts | 59° |
| 2026-04-27 22:50 | -22.95380 | -47.30609 | 9531 ft | 263 kts | 83° |
| 2026-04-27 22:50 | -22.95575 | -47.28646 | 9397 ft | 264 kts | 111° |
| 2026-04-27 22:50 | -22.96558 | -47.26985 | 9275 ft | 264 kts | 139° |
| 2026-04-27 22:50 | -22.98097 | -47.25946 | 9149 ft | 261 kts | 159° |
| 2026-04-27 22:51 | -22.99773 | -47.25181 | 9016 ft | 262 kts | 160° |
| 2026-04-27 22:51 | -23.01464 | -47.24459 | 8890 ft | 265 kts | 164° |
| 2026-04-27 22:51 | -23.03370 | -47.24185 | 8778 ft | 288 kts | 188° |
| 2026-04-27 22:51 | -23.05254 | -47.24880 | 8649 ft | 287 kts | 217° |
| 2026-04-27 22:52 | -23.06596 | -47.26447 | 8525 ft | 285 kts | 245° |
| 2026-04-27 22:52 | -23.07096 | -47.28482 | 8388 ft | 279 kts | 272° |
| 2026-04-27 22:52 | -23.06687 | -47.30512 | 8256 ft | 276 kts | 298° |
| 2026-04-27 22:52 | -23.05489 | -47.32116 | 8136 ft | 276 kts | 323° |
| 2026-04-27 22:53 | -23.03785 | -47.33045 | 8006 ft | 276 kts | 337° |
| 2026-04-27 22:53 | -23.02025 | -47.33778 | 7869 ft | 265 kts | 338° |
| 2026-04-27 22:53 | -23.00308 | -47.34434 | 7635 ft | 261 kts | 345° |
| 2026-04-27 22:53 | -22.98539 | -47.34818 | 7340 ft | 259 kts | 348° |
| 2026-04-27 22:54 | -22.96781 | -47.35124 | 7087 ft | 255 kts | 357° |
| 2026-04-27 22:54 | -22.95056 | -47.34829 | 6980 ft | 245 kts | 15° |
| 2026-04-27 22:54 | -22.93480 | -47.34318 | 6919 ft | 229 kts | 14° |
| 2026-04-27 22:54 | -22.91997 | -47.33842 | 6824 ft | 216 kts | 14° |
| 2026-04-27 22:55 | -22.90599 | -47.33382 | 6614 ft | 205 kts | 17° |
| 2026-04-27 22:55 | -22.89448 | -47.32521 | 6297 ft | 203 kts | 48° |
| 2026-04-27 22:55 | -22.88900 | -47.31100 | 5801 ft | 211 kts | 84° |
| 2026-04-27 22:55 | -22.89192 | -47.29615 | 5543 ft | 193 kts | 118° |
| 2026-04-27 22:56 | -22.89931 | -47.28510 | 5283 ft | 171 kts | 128° |
| 2026-04-27 22:56 | -22.90632 | -47.27540 | 5041 ft | 157 kts | 128° |
| 2026-04-27 22:56 | -22.91281 | -47.26639 | 4860 ft | 152 kts | 128° |
| 2026-04-27 22:56 | -22.91950 | -47.25709 | 4660 ft | 159 kts | 128° |
| 2026-04-27 22:57 | -22.92629 | -47.24764 | 4449 ft | 158 kts | 129° |
| 2026-04-27 22:57 | -22.93301 | -47.23828 | 4236 ft | 157 kts | 129° |
| 2026-04-27 22:57 | -22.93973 | -47.22892 | 4027 ft | 157 kts | 128° |
| 2026-04-27 22:57 | -22.94644 | -47.21956 | 3819 ft | 156 kts | 128° |
| 2026-04-27 22:58 | -22.95309 | -47.21030 | 3612 ft | 155 kts | 128° |
| 2026-04-27 22:58 | -22.95970 | -47.20109 | 3406 ft | 154 kts | 128° |
| 2026-04-27 22:58 | -22.96627 | -47.19192 | 3201 ft | 154 kts | 129° |
| 2026-04-27 22:58 | -22.97283 | -47.18277 | 3000 ft | 152 kts | 130° |
| 2026-04-27 22:59 | -22.97890 | -47.17430 | 2814 ft | 150 kts | 129° |
| 2026-04-27 22:59 | -22.98527 | -47.16542 | 2609 ft | 149 kts | 129° |
| 2026-04-27 22:59 | -22.99161 | -47.15658 | 2407 ft | 148 kts | 128° |
| 2026-04-27 22:59 | -22.99749 | -47.14838 | 2238 ft | 148 kts | 129° |
| 2026-04-27 23:00 | -23.00688 | -47.13525 | 2155 ft | 35 kts | 128° |